sensor_id;sensor_type;location;lat;lon;timestamp;temperature;humidity
21207;DHT22;10761;48.532;8.026;2023-03-01T00:01:51;-1.70;1.00
21207;DHT22;10761;48.532;8.026;2023-03-01T00:04:17;-1.70;1.00
21207;DHT22;10761;48.532;8.026;2023-03-01T00:06:43;-1.80;1.00
21207;DHT22;10761;48.532;8.026;2023-03-01T00:09:11;-1.90;99.90
21207;DHT22;10761;48.532;8.026;2023-03-01T00:11:56;-1.90;1.00
21207;DHT22;10761;48.532;8.026;2023-03-01T00:14:22;-2.00;99.90
21207;DHT22;10761;48.532;8.026;2023-03-01T00:16:47;-2.00;1.00
21207;DHT22;10761;48.532;8.026;2023-03-01T00:19:14;-1.90;1.00
21207;DHT22;10761;48.532;8.026;2023-03-01T00:21:40;-1.90;99.90
21207;DHT22;10761;48.532;8.026;2023-03-01T00:24:05;-2.00;99.90
21207;DHT22;10761;48.532;8.026;2023-03-01T00:26:31;-2.00;1.00
21207;DHT22;10761;48.532;8.026;2023-03-01T00:28:57;-2.00;1.00
21207;DHT22;10761;48.532;8.026;2023-03-01T00:31:23;-2.00;1.00
21207;DHT22;10761;48.532;8.026;2023-03-01T00:33:51;-2.10;1.00
21207;DHT22;10761;48.532;8.026;2023-03-01T00:36:17;-2.00;99.90
21207;DHT22;10761;48.532;8.026;2023-03-01T00:38:43;-1.90;1.00
21207;DHT22;10761;48.532;8.026;2023-03-01T00:41:10;-1.80;1.00
21207;DHT22;10761;48.532;8.026;2023-03-01T00:43:36;-1.80;99.90
21207;DHT22;10761;48.532;8.026;2023-03-01T00:46:09;-1.80;1.00
21207;DHT22;10761;48.532;8.026;2023-03-01T00:48:35;-1.80;1.00
21207;DHT22;10761;48.532;8.026;2023-03-01T00:51:04;-1.80;99.90
21207;DHT22;10761;48.532;8.026;2023-03-01T00:53:30;-1.90;1.00
21207;DHT22;10761;48.532;8.026;2023-03-01T00:55:56;-1.90;99.90
21207;DHT22;10761;48.532;8.026;2023-03-01T00:58:22;-2.00;1.00
21207;DHT22;10761;48.532;8.026;2023-03-01T01:00:47;-2.00;1.00
21207;DHT22;10761;48.532;8.026;2023-03-01T01:03:13;-2.10;1.00
21207;DHT22;10761;48.532;8.026;2023-03-01T01:05:38;-2.20;99.90
21207;DHT22;10761;48.532;8.026;2023-03-01T01:08:04;-2.20;1.00
21207;DHT22;10761;48.532;8.026;2023-03-01T01:10:29;-2.20;1.00
21207;DHT22;10761;48.532;8.026;2023-03-01T01:12:55;-2.20;1.00
21207;DHT22;10761;48.532;8.026;2023-03-01T01:15:20;-2.10;1.00
21207;DHT22;10761;48.532;8.026;2023-03-01T01:17:46;-2.10;1.00
21207;DHT22;10761;48.532;8.026;2023-03-01T01:20:11;-2.10;99.90
21207;DHT22;10761;48.532;8.026;2023-03-01T01:22:36;-2.20;99.90
21207;DHT22;10761;48.532;8.026;2023-03-01T01:25:02;-2.20;99.90
21207;DHT22;10761;48.532;8.026;2023-03-01T01:27:27;-2.30;42.50
21207;DHT22;10761;48.532;8.026;2023-03-01T01:29:54;-2.30;99.90
21207;DHT22;10761;48.532;8.026;2023-03-01T01:32:19;-2.30;1.00
21207;DHT22;10761;48.532;8.026;2023-03-01T01:34:45;-2.30;1.00
21207;DHT22;10761;48.532;8.026;2023-03-01T01:37:11;-2.30;1.00
21207;DHT22;10761;48.532;8.026;2023-03-01T01:39:37;-2.30;1.00
21207;DHT22;10761;48.532;8.026;2023-03-01T01:42:02;-2.40;99.90
21207;DHT22;10761;48.532;8.026;2023-03-01T01:44:28;-2.40;1.00
21207;DHT22;10761;48.532;8.026;2023-03-01T01:51:49;-2.50;99.90
21207;DHT22;10761;48.532;8.026;2023-03-01T01:54:16;-2.50;1.00
21207;DHT22;10761;48.532;8.026;2023-03-01T01:56:46;-2.50;1.00
21207;DHT22;10761;48.532;8.026;2023-03-01T01:59:13;-2.60;1.00
21207;DHT22;10761;48.532;8.026;2023-03-01T02:01:39;-2.50;90.90
21207;DHT22;10761;48.532;8.026;2023-03-01T02:04:04;-2.50;1.00
21207;DHT22;10761;48.532;8.026;2023-03-01T02:06:39;-2.60;1.00
21207;DHT22;10761;48.532;8.026;2023-03-01T02:09:08;-2.60;1.00
21207;DHT22;10761;48.532;8.026;2023-03-01T02:11:35;-2.70;99.90
21207;DHT22;10761;48.532;8.026;2023-03-01T02:14:03;-2.70;1.00
21207;DHT22;10761;48.532;8.026;2023-03-01T02:16:28;-2.70;99.90
21207;DHT22;10761;48.532;8.026;2023-03-01T02:18:54;-2.70;1.00
21207;DHT22;10761;48.532;8.026;2023-03-01T02:23:48;-2.70;1.00
21207;DHT22;10761;48.532;8.026;2023-03-01T02:27:14;-2.80;1.00
21207;DHT22;10761;48.532;8.026;2023-03-01T02:29:09;-2.70;99.90
21207;DHT22;10761;48.532;8.026;2023-03-01T02:31:34;-2.60;1.00
21207;DHT22;10761;48.532;8.026;2023-03-01T02:34:10;-2.50;99.90
21207;DHT22;10761;48.532;8.026;2023-03-01T02:36:44;-2.60;1.00
21207;DHT22;10761;48.532;8.026;2023-03-01T02:39:12;-2.60;99.90
21207;DHT22;10761;48.532;8.026;2023-03-01T02:41:42;-2.70;1.00
21207;DHT22;10761;48.532;8.026;2023-03-01T02:44:08;-2.80;1.00
21207;DHT22;10761;48.532;8.026;2023-03-01T02:46:41;-2.80;1.00
21207;DHT22;10761;48.532;8.026;2023-03-01T02:49:21;-2.90;1.00
21207;DHT22;10761;48.532;8.026;2023-03-01T02:56:41;-2.90;1.00
21207;DHT22;10761;48.532;8.026;2023-03-01T02:59:07;-2.90;1.00
21207;DHT22;10761;48.532;8.026;2023-03-01T03:01:32;-2.90;69.80
21207;DHT22;10761;48.532;8.026;2023-03-01T03:04:05;-2.90;1.00
21207;DHT22;10761;48.532;8.026;2023-03-01T03:06:30;-2.90;1.00
21207;DHT22;10761;48.532;8.026;2023-03-01T03:08:56;-3.00;1.00
21207;DHT22;10761;48.532;8.026;2023-03-01T03:11:21;-2.90;1.00
21207;DHT22;10761;48.532;8.026;2023-03-01T03:13:47;-2.90;1.00
21207;DHT22;10761;48.532;8.026;2023-03-01T03:16:13;-2.90;99.90
21207;DHT22;10761;48.532;8.026;2023-03-01T03:18:39;-3.00;99.90
21207;DHT22;10761;48.532;8.026;2023-03-01T03:21:07;-3.00;1.00
21207;DHT22;10761;48.532;8.026;2023-03-01T03:23:33;-3.00;1.00
21207;DHT22;10761;48.532;8.026;2023-03-01T03:25:58;-3.10;99.90
21207;DHT22;10761;48.532;8.026;2023-03-01T03:28:24;-3.00;1.00
21207;DHT22;10761;48.532;8.026;2023-03-01T03:30:49;-3.10;1.00
21207;DHT22;10761;48.532;8.026;2023-03-01T03:33:15;-3.10;1.00
21207;DHT22;10761;48.532;8.026;2023-03-01T03:35:41;-3.10;1.00
21207;DHT22;10761;48.532;8.026;2023-03-01T03:38:08;-3.10;99.90
21207;DHT22;10761;48.532;8.026;2023-03-01T03:40:47;-3.20;1.00
21207;DHT22;10761;48.532;8.026;2023-03-01T03:43:14;-3.10;99.90
21207;DHT22;10761;48.532;8.026;2023-03-01T03:45:40;-3.20;1.00
21207;DHT22;10761;48.532;8.026;2023-03-01T03:48:07;-3.20;99.90
21207;DHT22;10761;48.532;8.026;2023-03-01T03:50:33;-3.10;1.00
21207;DHT22;10761;48.532;8.026;2023-03-01T03:53:02;-3.10;99.90
21207;DHT22;10761;48.532;8.026;2023-03-01T03:55:28;-3.10;35.50
21207;DHT22;10761;48.532;8.026;2023-03-01T03:57:58;-3.10;99.90
21207;DHT22;10761;48.532;8.026;2023-03-01T04:00:27;-3.20;99.90
21207;DHT22;10761;48.532;8.026;2023-03-01T04:02:53;-3.10;1.00
21207;DHT22;10761;48.532;8.026;2023-03-01T04:05:21;-3.20;99.90
21207;DHT22;10761;48.532;8.026;2023-03-01T04:07:47;-3.20;99.90
21207;DHT22;10761;48.532;8.026;2023-03-01T04:10:14;-3.30;99.90
21207;DHT22;10761;48.532;8.026;2023-03-01T04:12:40;-3.20;99.90
21207;DHT22;10761;48.532;8.026;2023-03-01T04:15:06;-3.20;99.90
21207;DHT22;10761;48.532;8.026;2023-03-01T04:17:41;-3.20;99.90
21207;DHT22;10761;48.532;8.026;2023-03-01T04:20:07;-3.20;1.00
21207;DHT22;10761;48.532;8.026;2023-03-01T04:22:33;-3.20;99.90
21207;DHT22;10761;48.532;8.026;2023-03-01T04:24:59;-3.20;99.90
21207;DHT22;10761;48.532;8.026;2023-03-01T04:27:34;-3.20;1.00
21207;DHT22;10761;48.532;8.026;2023-03-01T04:30:00;-3.20;1.00
21207;DHT22;10761;48.532;8.026;2023-03-01T04:32:26;-3.30;1.00
21207;DHT22;10761;48.532;8.026;2023-03-01T04:34:51;-3.40;99.90
21207;DHT22;10761;48.532;8.026;2023-03-01T04:37:17;-3.40;99.90
21207;DHT22;10761;48.532;8.026;2023-03-01T04:39:42;-3.40;1.00
21207;DHT22;10761;48.532;8.026;2023-03-01T04:42:11;-3.40;1.00
21207;DHT22;10761;48.532;8.026;2023-03-01T04:44:37;-3.40;1.00
21207;DHT22;10761;48.532;8.026;2023-03-01T04:47:03;-3.40;99.90
21207;DHT22;10761;48.532;8.026;2023-03-01T04:49:28;-3.40;1.00
21207;DHT22;10761;48.532;8.026;2023-03-01T04:51:54;-3.50;1.00
21207;DHT22;10761;48.532;8.026;2023-03-01T04:54:20;-3.40;1.00
21207;DHT22;10761;48.532;8.026;2023-03-01T04:56:45;-3.40;1.00
21207;DHT22;10761;48.532;8.026;2023-03-01T04:59:10;-3.40;1.00
21207;DHT22;10761;48.532;8.026;2023-03-01T05:01:37;-3.30;1.00
21207;DHT22;10761;48.532;8.026;2023-03-01T05:04:03;-3.40;1.00
21207;DHT22;10761;48.532;8.026;2023-03-01T05:06:30;-3.30;1.00
21207;DHT22;10761;48.532;8.026;2023-03-01T05:08:56;-3.30;1.00
21207;DHT22;10761;48.532;8.026;2023-03-01T05:11:21;-3.20;1.00
21207;DHT22;10761;48.532;8.026;2023-03-01T05:13:47;-3.30;1.00
21207;DHT22;10761;48.532;8.026;2023-03-01T05:16:15;-3.20;1.00
21207;DHT22;10761;48.532;8.026;2023-03-01T05:18:42;-3.20;1.00
21207;DHT22;10761;48.532;8.026;2023-03-01T05:21:12;-3.20;1.00
21207;DHT22;10761;48.532;8.026;2023-03-01T05:23:41;-3.10;1.00
21207;DHT22;10761;48.532;8.026;2023-03-01T05:26:06;-3.00;1.00
21207;DHT22;10761;48.532;8.026;2023-03-01T05:28:32;-3.00;1.00
21207;DHT22;10761;48.532;8.026;2023-03-01T05:30:58;-3.10;1.00
21207;DHT22;10761;48.532;8.026;2023-03-01T05:33:24;-3.00;1.00
21207;DHT22;10761;48.532;8.026;2023-03-01T05:35:50;-3.00;1.00
21207;DHT22;10761;48.532;8.026;2023-03-01T05:38:17;-3.00;1.00
21207;DHT22;10761;48.532;8.026;2023-03-01T05:40:43;-3.00;1.00
21207;DHT22;10761;48.532;8.026;2023-03-01T05:43:09;-3.00;1.00
21207;DHT22;10761;48.532;8.026;2023-03-01T05:45:35;-3.00;1.00
21207;DHT22;10761;48.532;8.026;2023-03-01T05:48:01;-3.00;1.00
21207;DHT22;10761;48.532;8.026;2023-03-01T05:50:28;-2.90;1.00
21207;DHT22;10761;48.532;8.026;2023-03-01T05:53:00;-2.90;99.90
21207;DHT22;10761;48.532;8.026;2023-03-01T05:55:26;-2.90;1.00
21207;DHT22;10761;48.532;8.026;2023-03-01T05:57:52;-2.90;1.00
21207;DHT22;10761;48.532;8.026;2023-03-01T06:00:19;-2.80;1.00
21207;DHT22;10761;48.532;8.026;2023-03-01T06:02:44;-2.80;1.00
21207;DHT22;10761;48.532;8.026;2023-03-01T06:05:11;-2.80;99.90
21207;DHT22;10761;48.532;8.026;2023-03-01T06:07:37;-2.90;1.00
21207;DHT22;10761;48.532;8.026;2023-03-01T06:10:06;-2.90;99.90
21207;DHT22;10761;48.532;8.026;2023-03-01T06:12:32;-2.90;1.00
21207;DHT22;10761;48.532;8.026;2023-03-01T06:14:58;-2.90;99.90
21207;DHT22;10761;48.532;8.026;2023-03-01T06:17:24;-2.90;1.00
21207;DHT22;10761;48.532;8.026;2023-03-01T06:19:49;-2.80;1.00
21207;DHT22;10761;48.532;8.026;2023-03-01T06:22:15;-2.90;1.00
21207;DHT22;10761;48.532;8.026;2023-03-01T06:24:40;-2.90;1.00
21207;DHT22;10761;48.532;8.026;2023-03-01T06:27:06;-2.80;1.00
21207;DHT22;10761;48.532;8.026;2023-03-01T06:29:31;-2.80;99.90
21207;DHT22;10761;48.532;8.026;2023-03-01T06:31:57;-2.80;99.90
21207;DHT22;10761;48.532;8.026;2023-03-01T06:34:22;-2.70;1.00
21207;DHT22;10761;48.532;8.026;2023-03-01T06:36:48;-2.70;99.90
21207;DHT22;10761;48.532;8.026;2023-03-01T06:39:13;-2.70;99.90
21207;DHT22;10761;48.532;8.026;2023-03-01T06:41:38;-2.70;99.90
21207;DHT22;10761;48.532;8.026;2023-03-01T06:44:04;-2.70;1.00
21207;DHT22;10761;48.532;8.026;2023-03-01T06:46:29;-2.70;24.30
21207;DHT22;10761;48.532;8.026;2023-03-01T06:48:55;-2.70;99.90
21207;DHT22;10761;48.532;8.026;2023-03-01T06:51:21;-2.60;99.90
21207;DHT22;10761;48.532;8.026;2023-03-01T06:53:46;-2.70;99.90
21207;DHT22;10761;48.532;8.026;2023-03-01T06:56:12;-2.70;99.90
21207;DHT22;10761;48.532;8.026;2023-03-01T06:58:37;-2.60;71.70
21207;DHT22;10761;48.532;8.026;2023-03-01T07:01:06;-2.60;99.90
21207;DHT22;10761;48.532;8.026;2023-03-01T07:03:32;-2.60;99.90
21207;DHT22;10761;48.532;8.026;2023-03-01T07:05:57;-2.60;99.90
21207;DHT22;10761;48.532;8.026;2023-03-01T07:08:22;-2.50;99.90
21207;DHT22;10761;48.532;8.026;2023-03-01T07:10:48;-2.50;99.90
21207;DHT22;10761;48.532;8.026;2023-03-01T07:13:13;-2.40;21.20
21207;DHT22;10761;48.532;8.026;2023-03-01T07:15:39;-2.40;1.00
21207;DHT22;10761;48.532;8.026;2023-03-01T07:18:05;-2.30;1.00
21207;DHT22;10761;48.532;8.026;2023-03-01T07:20:30;-2.30;1.00
21207;DHT22;10761;48.532;8.026;2023-03-01T07:22:56;-2.30;99.90
21207;DHT22;10761;48.532;8.026;2023-03-01T07:25:24;-2.20;99.90
21207;DHT22;10761;48.532;8.026;2023-03-01T07:27:50;-2.30;99.90
21207;DHT22;10761;48.532;8.026;2023-03-01T07:30:16;-2.30;1.00
21207;DHT22;10761;48.532;8.026;2023-03-01T07:32:42;-2.20;1.00
21207;DHT22;10761;48.532;8.026;2023-03-01T07:35:07;-2.10;99.90
21207;DHT22;10761;48.532;8.026;2023-03-01T07:37:33;-1.90;1.00
21207;DHT22;10761;48.532;8.026;2023-03-01T07:39:58;-1.60;1.00
21207;DHT22;10761;48.532;8.026;2023-03-01T07:42:24;-1.40;99.90
21207;DHT22;10761;48.532;8.026;2023-03-01T07:44:49;-1.10;1.00
21207;DHT22;10761;48.532;8.026;2023-03-01T07:47:15;-0.70;1.00
21207;DHT22;10761;48.532;8.026;2023-03-01T07:49:40;-0.40;1.00
21207;DHT22;10761;48.532;8.026;2023-03-01T07:52:06;-0.20;1.00
21207;DHT22;10761;48.532;8.026;2023-03-01T07:54:31;-0.20;1.00
21207;DHT22;10761;48.532;8.026;2023-03-01T07:56:57;-0.20;1.00
21207;DHT22;10761;48.532;8.026;2023-03-01T07:59:23;-0.10;1.00
21207;DHT22;10761;48.532;8.026;2023-03-01T08:01:54;0.40;1.00
21207;DHT22;10761;48.532;8.026;2023-03-01T08:04:20;0.70;1.00
21207;DHT22;10761;48.532;8.026;2023-03-01T08:06:45;0.80;99.90
21207;DHT22;10761;48.532;8.026;2023-03-01T08:09:11;1.30;86.90
21207;DHT22;10761;48.532;8.026;2023-03-01T08:11:36;1.60;1.00
21207;DHT22;10761;48.532;8.026;2023-03-01T08:14:02;2.20;99.90
21207;DHT22;10761;48.532;8.026;2023-03-01T08:16:28;2.60;1.00
21207;DHT22;10761;48.532;8.026;2023-03-01T08:18:53;2.90;1.00
21207;DHT22;10761;48.532;8.026;2023-03-01T08:21:21;2.80;99.90
21207;DHT22;10761;48.532;8.026;2023-03-01T08:23:47;2.70;99.90
21207;DHT22;10761;48.532;8.026;2023-03-01T08:26:13;2.90;1.00
21207;DHT22;10761;48.532;8.026;2023-03-01T08:28:39;3.30;99.90
21207;DHT22;10761;48.532;8.026;2023-03-01T08:33:39;3.40;1.00
21207;DHT22;10761;48.532;8.026;2023-03-01T08:36:05;3.50;1.00
21207;DHT22;10761;48.532;8.026;2023-03-01T08:38:32;3.50;1.00
21207;DHT22;10761;48.532;8.026;2023-03-01T08:41:02;3.20;1.00
21207;DHT22;10761;48.532;8.026;2023-03-01T08:43:27;2.90;1.00
21207;DHT22;10761;48.532;8.026;2023-03-01T08:45:53;2.80;1.00
21207;DHT22;10761;48.532;8.026;2023-03-01T08:48:18;2.80;6.20
21207;DHT22;10761;48.532;8.026;2023-03-01T08:50:44;3.00;99.20
21207;DHT22;10761;48.532;8.026;2023-03-01T08:53:09;2.90;60.10
21207;DHT22;10761;48.532;8.026;2023-03-01T08:55:35;3.00;20.40
21207;DHT22;10761;48.532;8.026;2023-03-01T08:58:00;3.50;1.00
21207;DHT22;10761;48.532;8.026;2023-03-01T09:00:26;3.80;1.00
21207;DHT22;10761;48.532;8.026;2023-03-01T09:02:51;3.70;1.00
21207;DHT22;10761;48.532;8.026;2023-03-01T09:05:17;3.70;1.00
21207;DHT22;10761;48.532;8.026;2023-03-01T09:07:42;3.90;1.00
21207;DHT22;10761;48.532;8.026;2023-03-01T09:10:08;3.60;1.00
21207;DHT22;10761;48.532;8.026;2023-03-01T09:12:34;3.50;1.00
21207;DHT22;10761;48.532;8.026;2023-03-01T09:14:59;3.20;1.00
21207;DHT22;10761;48.532;8.026;2023-03-01T09:17:25;3.20;1.00
21207;DHT22;10761;48.532;8.026;2023-03-01T09:19:50;3.30;1.00
21207;DHT22;10761;48.532;8.026;2023-03-01T09:22:16;3.80;1.00
21207;DHT22;10761;48.532;8.026;2023-03-01T09:24:41;4.10;1.00
21207;DHT22;10761;48.532;8.026;2023-03-01T09:27:07;4.70;1.00
21207;DHT22;10761;48.532;8.026;2023-03-01T09:29:35;5.30;1.00
21207;DHT22;10761;48.532;8.026;2023-03-01T09:32:00;6.30;1.00
21207;DHT22;10761;48.532;8.026;2023-03-01T09:34:26;7.00;1.00
21207;DHT22;10761;48.532;8.026;2023-03-01T09:36:52;7.30;1.00
21207;DHT22;10761;48.532;8.026;2023-03-01T09:39:18;7.60;1.00
21207;DHT22;10761;48.532;8.026;2023-03-01T09:46:43;8.10;99.90
21207;DHT22;10761;48.532;8.026;2023-03-01T09:49:11;8.40;99.90
21207;DHT22;10761;48.532;8.026;2023-03-01T09:51:37;8.00;99.90
21207;DHT22;10761;48.532;8.026;2023-03-01T09:54:03;8.50;99.90
21207;DHT22;10761;48.532;8.026;2023-03-01T09:56:32;8.20;99.90
21207;DHT22;10761;48.532;8.026;2023-03-01T09:59:02;8.60;99.90
21207;DHT22;10761;48.532;8.026;2023-03-01T10:01:35;9.00;99.90
21207;DHT22;10761;48.532;8.026;2023-03-01T10:06:31;9.80;99.90
21207;DHT22;10761;48.532;8.026;2023-03-01T10:09:05;9.80;99.90
21207;DHT22;10761;48.532;8.026;2023-03-01T10:11:32;9.50;99.90
21207;DHT22;10761;48.532;8.026;2023-03-01T10:14:06;8.60;99.90
21207;DHT22;10761;48.532;8.026;2023-03-01T10:21:53;6.70;99.90
21207;DHT22;10761;48.532;8.026;2023-03-01T10:24:19;7.30;99.90
21207;DHT22;10761;48.532;8.026;2023-03-01T10:29:12;7.10;99.90
21207;DHT22;10761;48.532;8.026;2023-03-01T10:34:18;7.10;99.90
21207;DHT22;10761;48.532;8.026;2023-03-01T10:36:44;7.10;99.90
21207;DHT22;10761;48.532;8.026;2023-03-01T10:39:20;7.60;99.90
21207;DHT22;10761;48.532;8.026;2023-03-01T10:41:52;7.60;99.90
21207;DHT22;10761;48.532;8.026;2023-03-01T10:44:37;7.70;99.90
21207;DHT22;10761;48.532;8.026;2023-03-01T10:47:03;8.10;99.90
21207;DHT22;10761;48.532;8.026;2023-03-01T10:49:29;8.30;99.90
21207;DHT22;10761;48.532;8.026;2023-03-01T10:51:54;8.60;99.90
21207;DHT22;10761;48.532;8.026;2023-03-01T10:54:21;8.40;99.90
21207;DHT22;10761;48.532;8.026;2023-03-01T10:56:50;8.20;99.90
21207;DHT22;10761;48.532;8.026;2023-03-01T10:59:38;8.20;99.90
21207;DHT22;10761;48.532;8.026;2023-03-01T11:07:26;8.80;99.90
21207;DHT22;10761;48.532;8.026;2023-03-01T11:09:51;8.80;99.90
21207;DHT22;10761;48.532;8.026;2023-03-01T11:12:17;8.90;99.90
21207;DHT22;10761;48.532;8.026;2023-03-01T11:14:46;9.20;99.90
21207;DHT22;10761;48.532;8.026;2023-03-01T11:17:29;9.40;99.90
21207;DHT22;10761;48.532;8.026;2023-03-01T11:22:26;8.50;1.00
21207;DHT22;10761;48.532;8.026;2023-03-01T11:24:53;8.30;1.00
21207;DHT22;10761;48.532;8.026;2023-03-01T11:27:24;8.30;1.00
21207;DHT22;10761;48.532;8.026;2023-03-01T11:32:44;9.20;1.00
21207;DHT22;10761;48.532;8.026;2023-03-01T11:35:18;9.60;1.00
21207;DHT22;10761;48.532;8.026;2023-03-01T11:38:09;9.10;1.00
21207;DHT22;10761;48.532;8.026;2023-03-01T11:40:34;9.40;1.00
21207;DHT22;10761;48.532;8.026;2023-03-01T11:45:52;9.20;1.00
21207;DHT22;10761;48.532;8.026;2023-03-01T11:48:32;9.00;1.00
21207;DHT22;10761;48.532;8.026;2023-03-01T11:51:02;9.20;1.00
21207;DHT22;10761;48.532;8.026;2023-03-01T11:56:25;8.90;1.00
21207;DHT22;10761;48.532;8.026;2023-03-01T11:58:58;9.00;99.90
21207;DHT22;10761;48.532;8.026;2023-03-01T12:06:33;9.80;99.90
21207;DHT22;10761;48.532;8.026;2023-03-01T12:14:27;9.60;1.00
21207;DHT22;10761;48.532;8.026;2023-03-01T12:19:48;10.70;1.00
21207;DHT22;10761;48.532;8.026;2023-03-01T12:22:32;11.10;99.90
21207;DHT22;10761;48.532;8.026;2023-03-01T12:30:50;12.00;99.90
21207;DHT22;10761;48.532;8.026;2023-03-01T12:36:13;12.40;1.00
21207;DHT22;10761;48.532;8.026;2023-03-01T12:38:41;13.70;99.90
21207;DHT22;10761;48.532;8.026;2023-03-01T12:41:12;13.90;1.00
21207;DHT22;10761;48.532;8.026;2023-03-01T12:51:07;14.20;1.00
21207;DHT22;10761;48.532;8.026;2023-03-01T12:53:36;14.30;1.00
21207;DHT22;10761;48.532;8.026;2023-03-01T12:56:08;15.20;1.00
21207;DHT22;10761;48.532;8.026;2023-03-01T12:58:36;15.50;1.00
21207;DHT22;10761;48.532;8.026;2023-03-01T13:06:11;14.00;1.00
21207;DHT22;10761;48.532;8.026;2023-03-01T13:08:39;13.30;1.00
21207;DHT22;10761;48.532;8.026;2023-03-01T13:11:12;13.40;1.00
21207;DHT22;10761;48.532;8.026;2023-03-01T13:13:40;13.40;1.00
21207;DHT22;10761;48.532;8.026;2023-03-01T13:16:22;13.10;1.00
21207;DHT22;10761;48.532;8.026;2023-03-01T13:21:40;13.90;1.00
21207;DHT22;10761;48.532;8.026;2023-03-01T13:24:23;13.50;1.00
21207;DHT22;10761;48.532;8.026;2023-03-01T13:34:51;12.90;1.00
21207;DHT22;10761;48.532;8.026;2023-03-01T13:37:21;13.10;1.00
21207;DHT22;10761;48.532;8.026;2023-03-01T13:39:47;12.70;1.00
21207;DHT22;10761;48.532;8.026;2023-03-01T13:44:57;13.20;1.00
21207;DHT22;10761;48.532;8.026;2023-03-01T13:47:23;13.40;1.00
21207;DHT22;10761;48.532;8.026;2023-03-01T13:51:08;13.40;1.00
21207;DHT22;10761;48.532;8.026;2023-03-01T13:53:41;13.20;1.00
21207;DHT22;10761;48.532;8.026;2023-03-01T13:56:12;12.60;1.00
21207;DHT22;10761;48.532;8.026;2023-03-01T13:58:54;13.10;1.00
21207;DHT22;10761;48.532;8.026;2023-03-01T14:03:50;13.10;1.00
21207;DHT22;10761;48.532;8.026;2023-03-01T14:06:24;13.00;1.00
21207;DHT22;10761;48.532;8.026;2023-03-01T14:09:04;12.60;1.00
21207;DHT22;10761;48.532;8.026;2023-03-01T14:11:56;13.00;1.00
21207;DHT22;10761;48.532;8.026;2023-03-01T14:20:10;13.10;99.90
21207;DHT22;10761;48.532;8.026;2023-03-01T14:22:37;13.20;1.00
21207;DHT22;10761;48.532;8.026;2023-03-01T14:25:32;13.40;1.00
21207;DHT22;10761;48.532;8.026;2023-03-01T14:30:34;13.20;1.00
21207;DHT22;10761;48.532;8.026;2023-03-01T14:33:03;12.90;1.00
21207;DHT22;10761;48.532;8.026;2023-03-01T14:35:36;13.30;1.00
21207;DHT22;10761;48.532;8.026;2023-03-01T14:38:02;13.50;1.00
21207;DHT22;10761;48.532;8.026;2023-03-01T14:40:34;13.20;1.00
21207;DHT22;10761;48.532;8.026;2023-03-01T14:43:07;12.80;1.00
21207;DHT22;10761;48.532;8.026;2023-03-01T14:45:33;13.20;1.00
21207;DHT22;10761;48.532;8.026;2023-03-01T14:48:01;12.80;1.00
21207;DHT22;10761;48.532;8.026;2023-03-01T14:50:33;12.70;1.00
21207;DHT22;10761;48.532;8.026;2023-03-01T14:53:01;13.00;1.00
21207;DHT22;10761;48.532;8.026;2023-03-01T14:55:34;13.10;1.00
21207;DHT22;10761;48.532;8.026;2023-03-01T14:58:04;12.90;1.00
21207;DHT22;10761;48.532;8.026;2023-03-01T15:00:32;12.50;1.00
21207;DHT22;10761;48.532;8.026;2023-03-01T15:03:06;12.10;1.00
21207;DHT22;10761;48.532;8.026;2023-03-01T15:05:39;12.20;1.00
21207;DHT22;10761;48.532;8.026;2023-03-01T15:08:06;12.20;1.00
21207;DHT22;10761;48.532;8.026;2023-03-01T15:10:35;11.80;1.00
21207;DHT22;10761;48.532;8.026;2023-03-01T15:13:12;12.30;1.00
21207;DHT22;10761;48.532;8.026;2023-03-01T15:15:41;12.70;1.00
21207;DHT22;10761;48.532;8.026;2023-03-01T15:18:20;13.00;1.00
21207;DHT22;10761;48.532;8.026;2023-03-01T15:20:47;12.70;1.00
21207;DHT22;10761;48.532;8.026;2023-03-01T15:23:28;12.80;1.00
21207;DHT22;10761;48.532;8.026;2023-03-01T15:25:56;12.40;1.00
21207;DHT22;10761;48.532;8.026;2023-03-01T15:28:26;12.40;1.00
21207;DHT22;10761;48.532;8.026;2023-03-01T15:31:00;12.30;1.00
21207;DHT22;10761;48.532;8.026;2023-03-01T15:33:32;12.40;1.00
21207;DHT22;10761;48.532;8.026;2023-03-01T15:35:59;12.40;1.00
21207;DHT22;10761;48.532;8.026;2023-03-01T15:41:46;12.80;1.00
21207;DHT22;10761;48.532;8.026;2023-03-01T15:44:29;12.80;1.00
21207;DHT22;10761;48.532;8.026;2023-03-01T15:46:56;12.70;1.00
21207;DHT22;10761;48.532;8.026;2023-03-01T15:49:37;12.20;1.00
21207;DHT22;10761;48.532;8.026;2023-03-01T15:52:10;11.20;1.00
21207;DHT22;10761;48.532;8.026;2023-03-01T15:54:39;11.00;1.00
21207;DHT22;10761;48.532;8.026;2023-03-01T15:57:12;11.50;1.00
21207;DHT22;10761;48.532;8.026;2023-03-01T15:59:38;11.50;82.70
21207;DHT22;10761;48.532;8.026;2023-03-01T16:02:09;11.20;84.80
21207;DHT22;10761;48.532;8.026;2023-03-01T16:04:36;10.60;10.20
21207;DHT22;10761;48.532;8.026;2023-03-01T16:07:01;10.40;1.00
21207;DHT22;10761;48.532;8.026;2023-03-01T16:09:27;10.40;1.00
21207;DHT22;10761;48.532;8.026;2023-03-01T16:11:54;10.30;1.00
21207;DHT22;10761;48.532;8.026;2023-03-01T16:14:19;10.40;1.00
21207;DHT22;10761;48.532;8.026;2023-03-01T16:16:46;10.40;99.90
21207;DHT22;10761;48.532;8.026;2023-03-01T16:19:13;10.50;13.00
21207;DHT22;10761;48.532;8.026;2023-03-01T16:21:39;10.20;1.00
21207;DHT22;10761;48.532;8.026;2023-03-01T16:24:05;10.10;1.00
21207;DHT22;10761;48.532;8.026;2023-03-01T16:26:31;9.60;1.00
21207;DHT22;10761;48.532;8.026;2023-03-01T16:28:58;9.40;1.00
21207;DHT22;10761;48.532;8.026;2023-03-01T16:31:23;9.30;17.60
21207;DHT22;10761;48.532;8.026;2023-03-01T16:33:53;9.20;1.00
21207;DHT22;10761;48.532;8.026;2023-03-01T16:36:20;8.90;2.90
21207;DHT22;10761;48.532;8.026;2023-03-01T16:38:49;8.60;1.00
21207;DHT22;10761;48.532;8.026;2023-03-01T16:41:17;8.40;1.00
21207;DHT22;10761;48.532;8.026;2023-03-01T16:43:43;8.20;1.00
21207;DHT22;10761;48.532;8.026;2023-03-01T16:46:13;8.00;1.00
21207;DHT22;10761;48.532;8.026;2023-03-01T16:48:39;7.80;4.80
21207;DHT22;10761;48.532;8.026;2023-03-01T16:51:05;7.50;1.00
21207;DHT22;10761;48.532;8.026;2023-03-01T16:53:33;7.30;7.20
21207;DHT22;10761;48.532;8.026;2023-03-01T16:55:59;7.20;99.90
21207;DHT22;10761;48.532;8.026;2023-03-01T16:58:25;7.00;6.30
21207;DHT22;10761;48.532;8.026;2023-03-01T17:00:52;6.80;5.50
21207;DHT22;10761;48.532;8.026;2023-03-01T17:03:22;6.40;1.00
21207;DHT22;10761;48.532;8.026;2023-03-01T17:05:48;6.20;1.00
21207;DHT22;10761;48.532;8.026;2023-03-01T17:08:14;6.00;1.00
21207;DHT22;10761;48.532;8.026;2023-03-01T17:10:40;5.80;1.00
21207;DHT22;10761;48.532;8.026;2023-03-01T17:13:10;5.60;1.00
21207;DHT22;10761;48.532;8.026;2023-03-01T17:15:42;5.40;1.00
21207;DHT22;10761;48.532;8.026;2023-03-01T17:18:08;5.30;1.00
21207;DHT22;10761;48.532;8.026;2023-03-01T17:20:34;5.20;1.00
21207;DHT22;10761;48.532;8.026;2023-03-01T17:23:00;5.10;1.00
21207;DHT22;10761;48.532;8.026;2023-03-01T17:25:26;5.00;1.00
21207;DHT22;10761;48.532;8.026;2023-03-01T17:27:52;4.90;1.00
21207;DHT22;10761;48.532;8.026;2023-03-01T17:30:17;4.80;1.00
21207;DHT22;10761;48.532;8.026;2023-03-01T17:32:43;4.70;1.00
21207;DHT22;10761;48.532;8.026;2023-03-01T17:35:09;4.60;1.00
21207;DHT22;10761;48.532;8.026;2023-03-01T17:37:37;4.50;1.00
21207;DHT22;10761;48.532;8.026;2023-03-01T17:40:04;4.50;1.00
21207;DHT22;10761;48.532;8.026;2023-03-01T17:42:31;4.40;1.00